createdAt,value
2023-02-27T00:03:00.186Z,8.8
2023-02-27T00:08:37.446Z,8.7
2023-02-27T00:14:15.143Z,8.8
2023-02-27T00:19:38.145Z,8.9
2023-02-27T00:25:34.043Z,8.9
2023-02-27T00:31:26.948Z,9.1
2023-02-27T00:37:19.318Z,9.1
2023-02-27T00:43:11.941Z,8.9
2023-02-27T00:48:49.023Z,8.9
2023-02-27T00:54:25.648Z,9
2023-02-27T01:00:03.161Z,8.9
2023-02-27T01:05:57.739Z,8.9
2023-02-27T01:11:49.963Z,8.8
2023-02-27T01:17:27.794Z,8.8
2023-02-27T01:23:04.933Z,8.8
2023-02-27T01:28:57.690Z,8.8
2023-02-27T01:34:51.507Z,8.9
2023-02-27T01:40:44.112Z,8.9
2023-02-27T01:46:37.443Z,8.9
2023-02-27T01:52:29.907Z,8.9
2023-02-27T01:58:22.829Z,8.8
2023-02-27T02:04:16.292Z,8.9
2023-02-27T02:10:09.226Z,8.9
2023-02-27T02:16:01.355Z,8.9
2023-02-27T02:21:55.021Z,8.6
2023-02-27T02:27:47.976Z,8.3
2023-02-27T02:33:42.472Z,8.1
2023-02-27T02:39:34.774Z,8.1
2023-02-27T02:45:28.351Z,7.6
2023-02-27T02:51:05.189Z,7.3
2023-02-27T02:57:01.802Z,6.9
2023-02-27T03:02:54.579Z,6.6
2023-02-27T03:08:31.412Z,6.4
2023-02-27T03:14:27.906Z,6.2
2023-02-27T03:20:19.861Z,6
2023-02-27T03:26:15.000Z,5.8
2023-02-27T03:32:08.877Z,5.6
2023-02-27T03:38:01.435Z,5.5
2023-02-27T03:43:38.486Z,5.3
2023-02-27T03:49:31.297Z,5.1
2023-02-27T03:55:08.526Z,5
2023-02-27T04:01:01.057Z,4.9
2023-02-27T04:06:53.724Z,4.8
2023-02-27T04:12:46.239Z,4.6
2023-02-27T04:18:39.802Z,4.6
2023-02-27T04:24:34.007Z,4.4
2023-02-27T04:30:25.705Z,4.4
2023-02-27T04:36:19.124Z,4.3
2023-02-27T04:42:11.258Z,4.3
2023-02-27T04:47:51.790Z,4.3
2023-02-27T04:53:47.239Z,4.3
2023-02-27T04:59:39.896Z,4.3
2023-02-27T05:05:33.108Z,4.3
2023-02-27T05:11:25.117Z,4.3
2023-02-27T05:17:19.336Z,4.3
2023-02-27T05:22:57.982Z,4.3
2023-02-27T05:28:35.224Z,4.3
2023-02-27T05:34:28.657Z,4.3
2023-02-27T05:40:21.156Z,4.3
2023-02-27T05:46:14.517Z,4.3
2023-02-27T05:52:06.200Z,4.4
2023-02-27T05:57:58.207Z,4.5
2023-02-27T06:03:50.745Z,4.8
2023-02-27T06:09:44.429Z,5.1
2023-02-27T06:15:21.902Z,5.6
2023-02-27T06:21:15.243Z,6.4
2023-02-27T06:27:08.366Z,7.5
2023-02-27T06:33:03.937Z,8.8
2023-02-27T06:38:56.198Z,10.4
2023-02-27T06:44:48.657Z,12.4
2023-02-27T06:50:42.822Z,13.9
2023-02-27T06:56:34.803Z,15.4
2023-02-27T07:02:27.213Z,17.8
2023-02-27T07:09:40.181Z,21.3
2023-02-27T07:15:35.431Z,22.9
2023-02-27T07:21:28.062Z,28.1
2023-02-27T07:27:21.297Z,33.6
2023-02-27T07:33:14.663Z,40.9
2023-02-27T07:39:06.995Z,44.7
2023-02-27T07:45:11.299Z,49
2023-02-27T07:50:49.227Z,52.4
2023-02-27T07:56:42.573Z,56.4
2023-02-27T08:02:36.286Z,59.8
2023-02-27T08:08:29.884Z,61.4
2023-02-27T08:14:51.235Z,59.3
2023-02-27T08:20:45.517Z,57.9
2023-02-27T08:26:23.213Z,55.6
2023-02-27T08:32:18.497Z,52.3
2023-02-27T08:38:25.437Z,49.6
2023-02-27T08:44:19.209Z,51.7
2023-02-27T08:49:57.780Z,55.5
2023-02-27T08:55:51.394Z,59.8
2023-02-27T09:01:46.054Z,64.7
2023-02-27T09:07:39.797Z,51.4
2023-02-27T09:13:18.204Z,50.1
2023-02-27T09:19:11.978Z,52.7
2023-02-27T09:25:11.208Z,52.7
2023-02-27T09:31:17.014Z,52.8
2023-02-27T09:37:10.852Z,56.6
2023-02-27T09:43:03.405Z,61
2023-02-27T09:49:10.914Z,57.3
2023-02-27T09:55:04.657Z,48.2
2023-02-27T10:00:58.408Z,50.1
2023-02-27T10:06:51.751Z,53.9
2023-02-27T10:12:44.064Z,56.1
2023-02-27T10:18:50.512Z,56.8
2023-02-27T10:24:28.058Z,64.2
2023-02-27T10:30:43.811Z,57.6
2023-02-27T10:36:33.454Z,52.6
2023-02-27T10:42:26.583Z,59.8
2023-02-27T10:48:21.192Z,63.8
2023-02-27T10:54:14.813Z,60.4
2023-02-27T10:59:37.030Z,59.8
2023-02-27T11:05:15.359Z,61.5
2023-02-27T11:11:08.624Z,62.3
2023-02-27T11:17:02.608Z,58.4
2023-02-27T11:22:39.555Z,63.7
2023-02-27T11:28:31.940Z,64.9
2023-02-27T11:34:24.964Z,63.6
2023-02-27T11:39:47.299Z,54.9
2023-02-27T11:47:07.155Z,52.9
2023-02-27T11:53:01.072Z,55.8
2023-02-27T11:58:53.810Z,62.8
2023-02-27T12:04:46.762Z,60
2023-02-27T12:10:24.112Z,57.1
2023-02-27T12:16:17.635Z,59.4
2023-02-27T12:21:55.620Z,60.7
2023-02-27T12:27:48.936Z,61.9
2023-02-27T12:33:42.902Z,69.1
2023-02-27T12:39:36.904Z,55
2023-02-27T12:45:13.870Z,50.7
2023-02-27T12:51:07.652Z,48.2
2023-02-27T12:57:02.895Z,45.2
2023-02-27T13:02:39.986Z,42.2
2023-02-27T13:08:33.255Z,39
2023-02-27T13:14:26.412Z,37.4
2023-02-27T13:20:03.681Z,35.8
2023-02-27T13:25:57.970Z,34
2023-02-27T13:31:52.718Z,32.3
2023-02-27T13:38:03.701Z,30.3
2023-02-27T13:44:08.201Z,28.8
2023-02-27T13:50:10.583Z,27.2
2023-02-27T13:56:00.589Z,25.6
2023-02-27T14:01:39.378Z,24.1
2023-02-27T14:07:30.825Z,22.6
2023-02-27T14:13:18.318Z,21.3
2023-02-27T14:19:08.315Z,20
2023-02-27T14:25:18.235Z,18.8
2023-02-27T14:31:11.706Z,17.3
2023-02-27T14:37:21.509Z,16.3
2023-02-27T14:43:06.394Z,15.2
2023-02-27T14:49:01.938Z,14.3
2023-02-27T14:54:54.902Z,13.3
2023-02-27T15:00:56.905Z,12.3
2023-02-27T15:06:52.768Z,11.4
2023-02-27T15:12:53.881Z,10.8
2023-02-27T15:18:56.259Z,10.1
2023-02-27T15:24:49.514Z,9.6
2023-02-27T15:30:43.902Z,9.1
2023-02-27T15:36:37.090Z,8.7
2023-02-27T15:42:17.002Z,8.4
2023-02-27T15:48:10.000Z,8.1
2023-02-27T15:54:02.896Z,7.6
2023-02-27T15:59:50.835Z,7.4
2023-02-27T16:05:31.588Z,7.1
2023-02-27T16:11:25.077Z,6.9
2023-02-27T16:17:19.147Z,6.7
2023-02-27T16:23:12.173Z,6.5
2023-02-27T16:29:05.571Z,6.3
2023-02-27T16:34:59.061Z,6.1
2023-02-27T16:40:55.202Z,5.9
2023-02-27T16:46:33.721Z,5.8
2023-02-27T16:52:42.044Z,5.6
2023-02-27T16:58:42.110Z,5.4
2023-02-27T17:04:42.189Z,5.3
2023-02-27T17:10:18.418Z,5.3
2023-02-27T17:15:55.415Z,5.2
2023-02-27T17:21:50.421Z,5.1
2023-02-27T17:27:43.851Z,5.1
2023-02-27T17:33:38.070Z,5.1
2023-02-27T17:39:31.052Z,5
2023-02-27T17:45:08.215Z,5
2023-02-27T17:51:02.127Z,4.9
2023-02-27T17:56:54.795Z,4.8
2023-02-27T18:02:47.957Z,4.6
2023-02-27T18:08:39.975Z,4.5
2023-02-27T18:14:33.718Z,4.3
2023-02-27T18:20:27.554Z,4.2
2023-02-27T18:26:29.292Z,4
2023-02-27T18:32:22.737Z,3.9
2023-02-27T18:38:15.764Z,3.8
2023-02-27T18:44:09.192Z,3.6
2023-02-27T18:50:04.343Z,3.6
2023-02-27T18:55:56.234Z,3.6
2023-02-27T19:01:48.805Z,3.6
2023-02-27T19:07:45.740Z,3.6
2023-02-27T19:13:37.432Z,3.6
2023-02-27T19:19:30.830Z,3.7
2023-02-27T19:25:23.403Z,3.7
2023-02-27T19:31:01.228Z,3.7
2023-02-27T19:36:55.463Z,3.7
2023-02-27T19:42:32.946Z,3.7
2023-02-27T19:48:26.370Z,3.7
2023-02-27T19:54:19.284Z,3.7
2023-02-27T20:00:12.754Z,3.7
2023-02-27T20:06:06.133Z,3.6
2023-02-27T20:11:58.770Z,3.5
2023-02-27T20:17:51.829Z,3.4
2023-02-27T20:23:44.719Z,3.3
2023-02-27T20:29:38.015Z,3.3
2023-02-27T20:35:32.239Z,3.3
2023-02-27T20:41:24.695Z,3.3
2023-02-27T20:47:16.960Z,3.2
2023-02-27T20:53:10.429Z,3.3
2023-02-27T20:59:02.949Z,3.3
2023-02-27T21:05:04.924Z,3.3
2023-02-27T21:11:00.402Z,3.4
2023-02-27T21:16:52.538Z,3.4
2023-02-27T21:22:45.281Z,3.6
2023-02-27T21:28:38.429Z,3.6
2023-02-27T21:34:32.946Z,3.8
2023-02-27T21:40:26.390Z,3.9
2023-02-27T21:46:18.398Z,4
2023-02-27T21:52:28.824Z,4.1
2023-02-27T21:58:21.165Z,4.3
2023-02-27T22:04:14.071Z,4.3
2023-02-27T22:10:07.034Z,4.4
2023-02-27T22:16:00.387Z,4.5
2023-02-27T22:21:52.681Z,4.5
2023-02-27T22:27:44.985Z,4.4
2023-02-27T22:33:40.465Z,4.4
2023-02-27T22:39:33.284Z,4.4
2023-02-27T22:45:25.893Z,4.3
2023-02-27T22:51:18.198Z,4.3
2023-02-27T22:56:58.003Z,4.3
2023-02-27T23:02:50.579Z,4.2
2023-02-27T23:08:44.114Z,4.2
2023-02-27T23:14:37.598Z,4.2
2023-02-27T23:20:44.183Z,4.3
2023-02-27T23:26:36.684Z,4.3
2023-02-27T23:32:29.795Z,4.3
2023-02-27T23:38:31.024Z,4.3
2023-02-27T23:44:22.937Z,4.4
2023-02-27T23:50:15.129Z,4.3
2023-02-27T23:56:08.163Z,4.3
